Time;durP1;ratioP1;P1;durP2;ratioP2;P2;SDS_P1;SDS_P2;PMS_P1;PMS_P2;Temp;Humidity;BMP_temperature;BMP_pressure;BME280_temperature;BME280_humidity;BME280_pressure;Samples;Min_cycle;Max_cycle;Signal;HPM_P1;HPM_P2
2024/02/28 00:00:57;;;;;;;14.73;9.43;;;;;;;;;;4991683;28;20207;-70
2024/02/28 00:03:23;;;;;;;14.10;9.57;;;;;;;;;;4989267;28;20270;-69
2024/02/28 00:05:49;;;;;;;16.90;9.63;;;;;;;;;;4981227;28;20293;-70
2024/02/28 00:08:14;;;;;;;14.87;8.50;;;;;;;;;;4989355;28;20188;-70
2024/02/28 00:10:39;;;;;;;12.03;8.07;;;;;;;;;;4991100;28;20306;-70
2024/02/28 00:13:04;;;;;;;16.87;8.97;;;;;;;;;;4992922;28;20337;-70
2024/02/28 00:15:29;;;;;;;13.17;8.77;;;;;;;;;;4991625;28;20675;-70
2024/02/28 00:17:55;;;;;;;11.17;8.27;;;;;;;;;;4992850;28;20206;-70
2024/02/28 00:20:20;;;;;;;14.30;8.77;;;;;;;;;;4991182;28;20676;-70
2024/02/28 00:22:45;;;;;;;13.20;8.37;;;;;;;;;;4982084;28;20668;-70
2024/02/28 00:25:11;;;;;;;12.47;8.87;;;;;;;;;;4985660;28;20191;-70
2024/02/28 00:27:36;;;;;;;11.23;8.70;;;;;;;;;;4989415;28;20179;-70
2024/02/28 00:30:04;;;;;;;12.57;9.03;;;;;;;;;;4992462;28;20196;-70
2024/02/28 00:32:30;;;;;;;12.87;8.30;;;;;;;;;;4991016;28;20188;-71
2024/02/28 00:34:57;;;;;;;13.27;9.53;;;;;;;;;;4993815;28;20245;-70
2024/02/28 00:37:22;;;;;;;10.90;7.67;;;;;;;;;;4994441;28;20286;-70
2024/02/28 00:39:48;;;;;;;11.07;8.57;;;;;;;;;;4995598;28;20637;-70
2024/02/28 00:42:13;;;;;;;11.87;8.33;;;;;;;;;;4987296;28;20191;-70
2024/02/28 00:44:38;;;;;;;11.93;8.23;;;;;;;;;;4992709;28;20230;-70
2024/02/28 00:47:03;;;;;;;13.97;9.03;;;;;;;;;;4990946;28;20188;-70
2024/02/28 00:49:28;;;;;;;16.37;9.80;;;;;;;;;;4996897;28;20589;-71
2024/02/28 00:51:54;;;;;;;12.03;8.50;;;;;;;;;;4990510;28;20188;-70
2024/02/28 00:54:21;;;;;;;12.57;8.27;;;;;;;;;;4997688;28;20595;-70
2024/02/28 00:56:46;;;;;;;15.53;9.73;;;;;;;;;;4989143;28;20632;-70
2024/02/28 00:59:12;;;;;;;18.33;9.63;;;;;;;;;;4981904;28;20290;-70
2024/02/28 01:01:38;;;;;;;12.37;9.03;;;;;;;;;;4991777;28;20237;-70
2024/02/28 01:04:03;;;;;;;13.23;8.80;;;;;;;;;;4996473;28;20181;-70
2024/02/28 01:06:28;;;;;;;14.07;9.43;;;;;;;;;;4989807;28;20212;-70
2024/02/28 01:08:53;;;;;;;13.23;8.83;;;;;;;;;;4991901;28;20195;-70
2024/02/28 01:11:18;;;;;;;11.50;8.17;;;;;;;;;;4987524;28;20210;-71
2024/02/28 01:13:44;;;;;;;11.83;9.07;;;;;;;;;;4989097;28;20183;-70
2024/02/28 01:16:09;;;;;;;13.10;10.03;;;;;;;;;;4990293;28;20532;-70
2024/02/28 01:18:34;;;;;;;13.13;8.67;;;;;;;;;;4989977;28;20175;-70
2024/02/28 01:20:59;;;;;;;15.93;9.27;;;;;;;;;;4993865;28;20203;-70
2024/02/28 01:23:25;;;;;;;15.23;9.77;;;;;;;;;;4991260;28;20172;-69
2024/02/28 01:25:50;;;;;;;15.23;9.60;;;;;;;;;;5000844;28;20195;-70
2024/02/28 01:28:15;;;;;;;18.70;9.77;;;;;;;;;;4992669;28;20188;-70
2024/02/28 01:30:40;;;;;;;14.87;10.17;;;;;;;;;;4999009;28;20219;-70
2024/02/28 01:33:05;;;;;;;15.50;10.00;;;;;;;;;;4994639;28;20599;-70
2024/02/28 01:35:31;;;;;;;14.90;10.27;;;;;;;;;;5002536;28;20199;-70
2024/02/28 01:37:56;;;;;;;16.63;10.33;;;;;;;;;;4994829;28;20184;-70
2024/02/28 01:40:21;;;;;;;16.03;10.73;;;;;;;;;;4983171;28;20199;-70
2024/02/28 01:42:46;;;;;;;15.87;10.17;;;;;;;;;;4986863;28;20262;-70
2024/02/28 01:45:13;;;;;;;18.23;11.67;;;;;;;;;;4989207;28;20756;-70
2024/02/28 01:47:38;;;;;;;16.43;11.17;;;;;;;;;;4996726;28;20192;-70
2024/02/28 01:50:04;;;;;;;16.17;9.83;;;;;;;;;;4995380;28;20269;-70
2024/02/28 01:52:30;;;;;;;17.53;11.20;;;;;;;;;;4992269;28;20191;-71
2024/02/28 01:54:55;;;;;;;14.20;10.87;;;;;;;;;;4995037;28;20183;-70
2024/02/28 01:57:21;;;;;;;18.20;10.20;;;;;;;;;;4981737;28;20212;-71
2024/02/28 01:59:46;;;;;;;17.90;11.67;;;;;;;;;;4996203;28;20199;-71
2024/02/28 02:02:11;;;;;;;19.27;11.67;;;;;;;;;;4986308;28;20183;-71
2024/02/28 02:04:37;;;;;;;14.63;10.80;;;;;;;;;;4986489;28;20204;-71
2024/02/28 02:07:02;;;;;;;16.10;10.53;;;;;;;;;;4981162;28;20193;-71
2024/02/28 02:09:27;;;;;;;18.73;10.97;;;;;;;;;;4989418;28;20222;-70
2024/02/28 02:11:53;;;;;;;16.87;10.73;;;;;;;;;;4997694;28;20536;-70
2024/02/28 02:14:18;;;;;;;15.40;10.33;;;;;;;;;;4989914;28;20274;-70
2024/02/28 02:16:43;;;;;;;16.10;11.10;;;;;;;;;;4988914;28;20207;-71
2024/02/28 02:19:09;;;;;;;19.03;11.60;;;;;;;;;;4986140;28;20195;-70
2024/02/28 02:21:40;;;;;;;16.70;11.00;;;;;;;;;;4988863;28;20177;-70
2024/02/28 02:24:06;;;;;;;20.43;12.83;;;;;;;;;;4989769;28;20331;-71
2024/02/28 02:26:31;;;;;;;15.03;9.97;;;;;;;;;;4986314;28;20936;-70
2024/02/28 02:28:56;;;;;;;26.27;12.10;;;;;;;;;;4987255;28;20200;-69
2024/02/28 02:31:22;;;;;;;17.90;11.60;;;;;;;;;;4994196;28;20267;-71
2024/02/28 02:33:47;;;;;;;18.87;12.13;;;;;;;;;;4996162;28;20271;-71
2024/02/28 02:36:13;;;;;;;19.07;12.10;;;;;;;;;;4983093;28;20804;-69
2024/02/28 02:38:38;;;;;;;16.83;11.47;;;;;;;;;;4994081;28;20219;-71
2024/02/28 02:41:03;;;;;;;19.07;11.97;;;;;;;;;;4994421;28;20195;-70
2024/02/28 02:43:28;;;;;;;20.03;12.67;;;;;;;;;;4985043;28;20692;-71
2024/02/28 02:45:54;;;;;;;18.10;11.20;;;;;;;;;;4983379;28;20184;-71
2024/02/28 02:48:19;;;;;;;18.93;11.73;;;;;;;;;;4987770;28;20184;-71
2024/02/28 02:50:45;;;;;;;23.77;13.00;;;;;;;;;;4983836;28;20195;-70
2024/02/28 02:53:10;;;;;;;17.07;11.93;;;;;;;;;;5000009;28;20187;-70
2024/02/28 02:55:36;;;;;;;21.80;13.10;;;;;;;;;;4994555;28;20208;-70
2024/02/28 02:58:02;;;;;;;21.03;12.30;;;;;;;;;;4994585;28;20200;-71
2024/02/28 03:00:27;;;;;;;19.03;12.10;;;;;;;;;;4988214;28;20259;-71
2024/02/28 03:02:53;;;;;;;22.83;14.20;;;;;;;;;;4988590;28;20176;-71
2024/02/28 03:05:18;;;;;;;26.70;14.80;;;;;;;;;;4990198;28;20234;-69
2024/02/28 03:07:43;;;;;;;21.77;14.10;;;;;;;;;;4981590;28;20169;-70
2024/02/28 03:10:10;;;;;;;27.27;15.33;;;;;;;;;;4990332;28;20199;-70
2024/02/28 03:12:35;;;;;;;25.30;16.87;;;;;;;;;;4990842;28;20212;-70
2024/02/28 03:15:00;;;;;;;31.00;17.70;;;;;;;;;;4977032;28;20289;-71
2024/02/28 03:17:25;;;;;;;25.37;16.83;;;;;;;;;;4988745;28;20781;-70
2024/02/28 03:19:51;;;;;;;25.07;16.50;;;;;;;;;;4991023;28;20216;-71
2024/02/28 03:22:16;;;;;;;27.07;15.97;;;;;;;;;;4991770;28;20176;-70
2024/02/28 03:24:41;;;;;;;22.07;16.00;;;;;;;;;;4992435;28;20241;-69
2024/02/28 03:27:06;;;;;;;25.17;15.73;;;;;;;;;;4983528;28;20186;-73
2024/02/28 03:29:31;;;;;;;26.00;17.20;;;;;;;;;;4993935;28;20298;-73
2024/02/28 03:31:58;;;;;;;23.23;15.87;;;;;;;;;;4998973;28;20682;-72
2024/02/28 03:34:23;;;;;;;23.43;15.83;;;;;;;;;;4995778;28;20191;-72
2024/02/28 03:36:48;;;;;;;24.33;16.40;;;;;;;;;;4997312;28;20205;-73
2024/02/28 03:39:13;;;;;;;27.77;16.33;;;;;;;;;;4983993;28;20262;-73
2024/02/28 03:41:39;;;;;;;22.93;15.20;;;;;;;;;;4990693;28;20520;-73
2024/02/28 03:44:04;;;;;;;21.57;14.73;;;;;;;;;;4989916;28;20602;-73
2024/02/28 03:46:29;;;;;;;25.07;16.67;;;;;;;;;;4980394;28;20184;-73
2024/02/28 03:48:55;;;;;;;26.10;16.80;;;;;;;;;;4980885;28;20187;-73
2024/02/28 03:51:20;;;;;;;23.77;15.73;;;;;;;;;;4990811;28;20195;-73
2024/02/28 03:53:45;;;;;;;28.40;16.90;;;;;;;;;;4993373;28;20202;-73
2024/02/28 03:56:11;;;;;;;24.30;15.63;;;;;;;;;;4980009;28;20208;-73
2024/02/28 03:58:36;;;;;;;22.00;15.70;;;;;;;;;;4993223;28;20195;-73
2024/02/28 04:01:02;;;;;;;25.77;15.03;;;;;;;;;;5003122;28;20297;-72
2024/02/28 04:03:27;;;;;;;26.97;17.13;;;;;;;;;;4996200;28;20550;-72
2024/02/28 04:05:52;;;;;;;27.07;16.13;;;;;;;;;;5002015;28;20199;-73
2024/02/28 04:08:17;;;;;;;23.40;14.87;;;;;;;;;;4991836;28;20188;-73
2024/02/28 04:10:43;;;;;;;24.57;15.23;;;;;;;;;;4987669;28;20211;-73
2024/02/28 04:13:09;;;;;;;25.80;15.47;;;;;;;;;;4985113;28;20555;-73
2024/02/28 04:15:34;;;;;;;23.13;15.57;;;;;;;;;;4980529;28;20212;-74
2024/02/28 04:17:59;;;;;;;20.97;14.80;;;;;;;;;;4977996;28;20173;-73
2024/02/28 04:20:24;;;;;;;20.77;14.57;;;;;;;;;;4978209;28;20562;-73
2024/02/28 04:22:49;;;;;;;20.90;14.83;;;;;;;;;;4987288;28;20227;-73
2024/02/28 04:25:15;;;;;;;22.37;14.97;;;;;;;;;;4987679;28;20186;-73
2024/02/28 04:27:40;;;;;;;21.40;14.13;;;;;;;;;;4974877;28;20187;-73
2024/02/28 04:30:05;;;;;;;24.20;15.37;;;;;;;;;;4988557;28;20201;-73
2024/02/28 04:32:31;;;;;;;24.07;14.47;;;;;;;;;;4989064;28;20169;-73
2024/02/28 04:34:56;;;;;;;21.27;13.30;;;;;;;;;;4979894;28;20492;-73
2024/02/28 04:37:21;;;;;;;22.47;13.80;;;;;;;;;;4991741;28;20682;-74
2024/02/28 04:39:46;;;;;;;23.27;13.90;;;;;;;;;;4991440;28;20281;-72
2024/02/28 04:42:12;;;;;;;22.33;13.97;;;;;;;;;;4986363;28;20179;-73
2024/02/28 04:44:38;;;;;;;18.03;12.00;;;;;;;;;;4980782;28;20259;-73
2024/02/28 04:47:03;;;;;;;23.73;14.13;;;;;;;;;;4983359;28;20198;-73
2024/02/28 04:49:28;;;;;;;17.60;12.03;;;;;;;;;;4990648;28;20750;-73
2024/02/28 04:51:53;;;;;;;20.17;12.70;;;;;;;;;;4988908;28;20187;-73
2024/02/28 04:54:18;;;;;;;21.40;13.43;;;;;;;;;;4989271;28;20190;-73
2024/02/28 04:56:44;;;;;;;22.93;14.73;;;;;;;;;;4980240;28;20192;-73
2024/02/28 04:59:11;;;;;;;21.27;13.03;;;;;;;;;;4984483;28;20179;-73
2024/02/28 05:01:39;;;;;;;22.80;12.80;;;;;;;;;;4993837;28;20180;-74
2024/02/28 05:04:04;;;;;;;21.63;13.70;;;;;;;;;;4987002;28;20227;-73
2024/02/28 05:06:29;;;;;;;21.47;12.83;;;;;;;;;;4992640;28;20184;-72
2024/02/28 05:08:54;;;;;;;22.30;13.37;;;;;;;;;;4988273;28;20284;-73
2024/02/28 05:11:20;;;;;;;19.40;12.33;;;;;;;;;;4993831;28;20499;-73
2024/02/28 05:13:45;;;;;;;25.93;14.77;;;;;;;;;;4988624;28;20554;-74
2024/02/28 05:16:14;;;;;;;25.77;13.87;;;;;;;;;;4982719;28;20219;-73
2024/02/28 05:18:39;;;;;;;21.60;13.30;;;;;;;;;;4988417;28;20448;-72
2024/02/28 05:21:04;;;;;;;23.30;13.97;;;;;;;;;;4987027;28;20270;-73
2024/02/28 05:23:30;;;;;;;22.70;13.13;;;;;;;;;;4986771;28;20176;-72
2024/02/28 05:25:56;;;;;;;24.90;13.50;;;;;;;;;;4990459;28;20200;-72
2024/02/28 05:28:21;;;;;;;20.57;13.73;;;;;;;;;;4991306;28;20218;-72
2024/02/28 05:30:46;;;;;;;24.00;13.00;;;;;;;;;;4986161;28;20322;-73
2024/02/28 05:33:11;;;;;;;21.10;13.60;;;;;;;;;;4992103;28;20373;-72
2024/02/28 05:35:36;;;;;;;23.63;12.63;;;;;;;;;;4995706;28;20557;-73
2024/02/28 05:38:02;;;;;;;23.83;12.77;;;;;;;;;;4997825;28;20573;-73
2024/02/28 05:40:27;;;;;;;18.97;13.63;;;;;;;;;;4989527;28;20191;-72
2024/02/28 05:42:53;;;;;;;20.83;12.47;;;;;;;;;;4997630;28;20566;-73
2024/02/28 05:45:18;;;;;;;20.47;13.50;;;;;;;;;;4995137;28;20168;-75
2024/02/28 05:47:43;;;;;;;22.60;13.63;;;;;;;;;;4986349;28;20673;-72
2024/02/28 05:50:10;;;;;;;23.33;14.00;;;;;;;;;;4989378;28;20188;-73
2024/02/28 05:52:35;;;;;;;25.83;13.43;;;;;;;;;;4995913;28;20184;-72
2024/02/28 05:55:00;;;;;;;22.37;13.57;;;;;;;;;;4997424;28;20202;-72
2024/02/28 05:57:25;;;;;;;21.57;13.37;;;;;;;;;;4993992;28;20702;-73
2024/02/28 05:59:50;;;;;;;21.20;13.97;;;;;;;;;;5006134;28;20225;-72
2024/02/28 06:02:15;;;;;;;21.67;13.53;;;;;;;;;;4997147;28;20176;-73
2024/02/28 06:04:41;;;;;;;19.57;12.33;;;;;;;;;;4995933;28;20241;-73
2024/02/28 06:07:06;;;;;;;22.93;13.83;;;;;;;;;;4988975;28;20185;-73
2024/02/28 06:09:31;;;;;;;20.43;12.67;;;;;;;;;;4990046;28;20234;-72
2024/02/28 06:11:56;;;;;;;18.07;12.80;;;;;;;;;;4995016;28;20190;-73
2024/02/28 06:14:22;;;;;;;17.30;12.10;;;;;;;;;;4991237;28;20694;-72
2024/02/28 06:16:47;;;;;;;23.07;12.83;;;;;;;;;;4994888;28;20208;-72
2024/02/28 06:19:12;;;;;;;20.47;13.23;;;;;;;;;;4991978;28;20256;-73
2024/02/28 06:21:37;;;;;;;18.13;12.57;;;;;;;;;;4989466;28;20172;-72
2024/02/28 06:24:04;;;;;;;20.20;12.87;;;;;;;;;;4989056;28;20190;-73
2024/02/28 06:26:31;;;;;;;16.50;12.27;;;;;;;;;;4983292;28;20186;-73
2024/02/28 06:29:01;;;;;;;18.87;12.63;;;;;;;;;;4991187;28;20737;-72
2024/02/28 06:31:26;;;;;;;19.73;13.27;;;;;;;;;;4982655;28;20187;-72
2024/02/28 06:33:51;;;;;;;15.83;12.57;;;;;;;;;;4989467;28;20225;-72
2024/02/28 06:36:16;;;;;;;22.43;13.93;;;;;;;;;;4994422;28;20206;-72
2024/02/28 06:38:41;;;;;;;18.67;12.90;;;;;;;;;;4993276;28;20632;-73
2024/02/28 06:41:07;;;;;;;16.17;11.67;;;;;;;;;;4989765;28;21059;-72
2024/02/28 06:43:35;;;;;;;16.00;13.00;;;;;;;;;;4988455;28;20627;-72
2024/02/28 06:46:01;;;;;;;18.57;12.47;;;;;;;;;;4991560;28;20187;-71
2024/02/28 06:48:27;;;;;;;18.30;12.90;;;;;;;;;;4987588;28;20655;-72
2024/02/28 06:50:52;;;;;;;18.87;12.87;;;;;;;;;;4989282;28;20218;-71
2024/02/28 06:53:17;;;;;;;26.13;13.93;;;;;;;;;;4992642;28;20541;-71
2024/02/28 06:55:42;;;;;;;16.20;12.53;;;;;;;;;;4990495;28;20208;-72
2024/02/28 06:58:07;;;;;;;20.93;12.53;;;;;;;;;;4990877;28;20172;-72
2024/02/28 07:00:32;;;;;;;18.20;13.30;;;;;;;;;;4985833;28;20195;-72
2024/02/28 07:02:58;;;;;;;17.30;12.67;;;;;;;;;;4989463;28;20656;-71
2024/02/28 07:05:24;;;;;;;23.27;13.13;;;;;;;;;;4992135;28;20168;-72
2024/02/28 07:07:49;;;;;;;17.03;12.40;;;;;;;;;;4995848;28;20262;-72
2024/02/28 07:10:14;;;;;;;17.63;13.67;;;;;;;;;;4992830;28;20649;-72
2024/02/28 07:12:39;;;;;;;22.20;14.03;;;;;;;;;;4992290;28;20609;-72
2024/02/28 07:15:05;;;;;;;19.33;14.03;;;;;;;;;;4992336;28;20179;-72
2024/02/28 07:17:31;;;;;;;23.60;13.73;;;;;;;;;;4994400;28;20595;-72
2024/02/28 07:19:56;;;;;;;19.37;14.23;;;;;;;;;;4986155;28;20277;-72
2024/02/28 07:22:21;;;;;;;20.33;13.47;;;;;;;;;;4993111;28;20203;-72
2024/02/28 07:24:46;;;;;;;22.63;15.70;;;;;;;;;;4996680;28;20167;-72
2024/02/28 07:27:12;;;;;;;22.73;13.93;;;;;;;;;;4990190;28;20187;-72
2024/02/28 07:29:37;;;;;;;23.90;15.03;;;;;;;;;;4987398;28;20283;-72
2024/02/28 07:32:02;;;;;;;20.30;14.57;;;;;;;;;;4984998;28;20183;-73
2024/02/28 07:34:28;;;;;;;25.13;15.13;;;;;;;;;;4985549;28;20180;-72
2024/02/28 07:36:53;;;;;;;27.70;15.50;;;;;;;;;;4995399;28;20202;-72
2024/02/28 07:39:18;;;;;;;22.97;15.73;;;;;;;;;;4994204;28;20195;-72
2024/02/28 07:41:43;;;;;;;21.13;14.77;;;;;;;;;;4985585;28;20195;-72
2024/02/28 07:44:09;;;;;;;19.73;13.43;;;;;;;;;;4988221;28;20194;-72
2024/02/28 07:46:34;;;;;;;21.97;14.10;;;;;;;;;;4990984;28;20725;-72
2024/02/28 07:49:00;;;;;;;22.93;14.57;;;;;;;;;;4991614;28;20171;-73
2024/02/28 07:51:25;;;;;;;20.60;14.87;;;;;;;;;;4991870;28;20575;-72
2024/02/28 07:53:51;;;;;;;23.33;14.67;;;;;;;;;;4996946;28;20172;-72
2024/02/28 07:56:17;;;;;;;19.27;13.37;;;;;;;;;;4989867;28;20328;-72
2024/02/28 07:58:42;;;;;;;19.90;15.23;;;;;;;;;;4992971;28;20186;-71
2024/02/28 08:01:07;;;;;;;20.47;13.70;;;;;;;;;;4987854;28;20192;-72
2024/02/28 08:03:33;;;;;;;18.17;14.17;;;;;;;;;;4990339;28;20175;-72
2024/02/28 08:05:58;;;;;;;23.50;15.40;;;;;;;;;;4988494;28;20180;-72
2024/02/28 08:08:23;;;;;;;19.00;14.23;;;;;;;;;;4991695;28;20617;-72
2024/02/28 08:10:48;;;;;;;25.00;15.40;;;;;;;;;;5118117;23;20624;-68
2024/02/28 08:13:14;;;;;;;24.03;15.23;;;;;;;;;;5031212;28;20170;-69
2024/02/28 08:15:39;;;;;;;20.23;13.50;;;;;;;;;;5029958;28;20210;-69
2024/02/28 08:18:04;;;;;;;18.53;13.77;;;;;;;;;;5031086;28;20523;-69
2024/02/28 08:20:29;;;;;;;25.90;14.57;;;;;;;;;;5002108;28;20590;-68
2024/02/28 08:22:57;;;;;;;21.40;13.23;;;;;;;;;;5012036;28;20190;-68
2024/02/28 08:25:22;;;;;;;22.87;14.10;;;;;;;;;;5006975;28;20271;-69
2024/02/28 08:27:48;;;;;;;23.40;14.10;;;;;;;;;;5010479;28;20865;-67
2024/02/28 08:30:13;;;;;;;21.63;12.73;;;;;;;;;;4990654;28;20195;-69
2024/02/28 08:32:38;;;;;;;17.57;12.70;;;;;;;;;;5001291;28;20172;-69
2024/02/28 08:35:03;;;;;;;21.03;12.30;;;;;;;;;;5010007;28;20179;-69
2024/02/28 08:37:29;;;;;;;18.20;12.63;;;;;;;;;;5009970;28;20298;-69
2024/02/28 08:39:57;;;;;;;20.30;13.37;;;;;;;;;;5006971;28;20207;-69
2024/02/28 08:42:24;;;;;;;15.90;12.70;;;;;;;;;;4985226;28;20181;-69
2024/02/28 08:44:49;;;;;;;17.40;12.13;;;;;;;;;;5013608;28;20179;-69
2024/02/28 08:47:14;;;;;;;17.03;12.97;;;;;;;;;;5021535;28;20265;-69
2024/02/28 08:49:40;;;;;;;20.33;12.03;;;;;;;;;;5005005;28;20207;-68
2024/02/28 08:52:05;;;;;;;15.40;12.17;;;;;;;;;;5004374;28;20718;-69
2024/02/28 08:54:30;;;;;;;20.40;13.07;;;;;;;;;;5006381;28;20216;-69
2024/02/28 08:56:55;;;;;;;20.70;13.20;;;;;;;;;;5006002;28;20250;-68
2024/02/28 08:59:21;;;;;;;18.47;12.00;;;;;;;;;;5007091;28;20333;-68
2024/02/28 09:01:47;;;;;;;17.10;13.40;;;;;;;;;;5003387;28;20171;-69
2024/02/28 09:04:12;;;;;;;23.53;13.03;;;;;;;;;;5001602;28;20193;-69
2024/02/28 09:06:37;;;;;;;16.87;12.43;;;;;;;;;;5009058;28;20270;-69
2024/02/28 09:09:03;;;;;;;17.83;12.40;;;;;;;;;;5006334;28;20597;-69
2024/02/28 09:11:29;;;;;;;18.17;13.87;;;;;;;;;;5009996;28;20225;-69
2024/02/28 09:13:54;;;;;;;27.30;12.73;;;;;;;;;;4984644;28;20187;-69
2024/02/28 09:16:20;;;;;;;20.47;12.97;;;;;;;;;;4988672;28;20327;-68
2024/02/28 09:18:45;;;;;;;22.43;13.27;;;;;;;;;;5004713;28;20179;-68
2024/02/28 09:21:10;;;;;;;17.77;12.97;;;;;;;;;;5003172;28;20206;-68
2024/02/28 09:23:35;;;;;;;25.60;14.37;;;;;;;;;;4990243;28;20262;-69
2024/02/28 09:26:04;;;;;;;20.33;12.83;;;;;;;;;;5008576;28;20187;-69
2024/02/28 09:28:29;;;;;;;18.90;12.50;;;;;;;;;;5010217;28;20171;-69
2024/02/28 09:30:54;;;;;;;19.90;12.63;;;;;;;;;;4992209;28;20580;-69
2024/02/28 09:33:19;;;;;;;23.40;13.83;;;;;;;;;;4992211;28;20472;-69
2024/02/28 09:35:45;;;;;;;21.43;12.73;;;;;;;;;;5003940;28;20214;-68
2024/02/28 09:38:10;;;;;;;18.90;12.90;;;;;;;;;;4986562;28;20190;-69
2024/02/28 09:40:36;;;;;;;15.60;11.80;;;;;;;;;;5006817;28;20203;-69
2024/02/28 09:43:02;;;;;;;16.23;12.30;;;;;;;;;;5011183;28;20268;-69
2024/02/28 09:45:30;;;;;;;16.30;12.57;;;;;;;;;;4995441;28;20190;-68
2024/02/28 09:47:55;;;;;;;22.20;13.33;;;;;;;;;;5012444;28;20306;-68
2024/02/28 09:50:21;;;;;;;21.63;14.33;;;;;;;;;;5008936;28;20459;-69
2024/02/28 09:52:47;;;;;;;19.13;13.23;;;;;;;;;;5015916;28;20183;-69
2024/02/28 09:55:12;;;;;;;27.63;14.07;;;;;;;;;;5019011;28;20191;-69
2024/02/28 09:57:37;;;;;;;18.57;12.63;;;;;;;;;;5008417;28;20634;-69
2024/02/28 10:00:03;;;;;;;17.20;13.13;;;;;;;;;;5014065;28;20194;-69
2024/02/28 10:02:28;;;;;;;18.47;13.00;;;;;;;;;;5010913;28;20179;-69
2024/02/28 10:04:55;;;;;;;20.38;13.38;;;;;;;;;;5005489;28;20175;-67
2024/02/28 10:07:21;;;;;;;23.33;12.33;;;;;;;;;;5007328;28;20227;-69
2024/02/28 10:09:46;;;;;;;20.27;12.83;;;;;;;;;;5006632;28;20304;-68
2024/02/28 10:12:12;;;;;;;19.83;12.70;;;;;;;;;;4989380;28;20190;-69
2024/02/28 10:14:38;;;;;;;20.15;12.75;;;;;;;;;;5009261;28;20186;-69
2024/02/28 10:17:03;;;;;;;20.95;13.60;;;;;;;;;;5005676;28;20211;-68
2024/02/28 10:19:29;;;;;;;23.52;13.93;;;;;;;;;;5013325;28;20179;-68
2024/02/28 10:21:55;;;;;;;17.13;12.67;;;;;;;;;;4991236;28;20669;-69
2024/02/28 10:24:20;;;;;;;16.67;12.53;;;;;;;;;;5007366;28;20703;-69
2024/02/28 10:26:55;;;;;;;21.35;13.48;;;;;;;;;;5011370;28;20271;-69
2024/02/28 10:29:24;;;;;;;21.20;13.18;;;;;;;;;;4991668;28;20190;-69
2024/02/28 10:31:49;;;;;;;24.20;12.85;;;;;;;;;;5010745;28;20658;-69
2024/02/28 10:34:21;;;;;;;19.23;12.20;;;;;;;;;;5010055;28;20229;-69
2024/02/28 10:36:46;;;;;;;22.75;12.95;;;;;;;;;;5008579;28;20309;-68
2024/02/28 10:39:11;;;;;;;16.48;12.50;;;;;;;;;;5008730;28;20262;-68
2024/02/28 10:41:40;;;;;;;18.55;13.05;;;;;;;;;;5005641;28;20689;-69
2024/02/28 10:44:05;;;;;;;22.08;12.30;;;;;;;;;;5005247;28;20253;-69
2024/02/28 10:46:30;;;;;;;19.73;13.55;;;;;;;;;;5007966;28;20749;-68
2024/02/28 10:48:57;;;;;;;17.48;13.23;;;;;;;;;;5009881;28;20183;-69
2024/02/28 10:51:25;;;;;;;21.65;12.65;;;;;;;;;;5007861;28;20618;-69
2024/02/28 10:53:59;;;;;;;17.88;11.70;;;;;;;;;;4993363;28;20685;-69
2024/02/28 10:56:26;;;;;;;19.33;12.55;;;;;;;;;;4986747;28;20203;-69
2024/02/28 10:58:52;;;;;;;21.52;13.75;;;;;;;;;;5009306;28;20225;-70
2024/02/28 11:01:17;;;;;;;23.10;12.85;;;;;;;;;;5021876;28;20199;-69
2024/02/28 11:03:44;;;;;;;24.85;14.45;;;;;;;;;;5001602;28;20634;-69
2024/02/28 11:06:17;;;;;;;20.83;14.00;;;;;;;;;;5007816;28;20187;-68
2024/02/28 11:08:45;;;;;;;25.67;13.85;;;;;;;;;;5007558;28;20584;-68
2024/02/28 11:11:13;;;;;;;22.88;14.15;;;;;;;;;;4991970;28;20215;-69
2024/02/28 11:13:39;;;;;;;22.35;13.30;;;;;;;;;;5008455;28;20195;-69
2024/02/28 11:16:10;;;;;;;23.50;13.98;;;;;;;;;;4987931;28;20211;-69
2024/02/28 11:18:35;;;;;;;25.00;14.68;;;;;;;;;;4987961;28;20179;-69
2024/02/28 11:21:03;;;;;;;23.45;14.27;;;;;;;;;;5010018;28;20207;-69
2024/02/28 11:23:36;;;;;;;22.63;13.73;;;;;;;;;;5004538;28;20179;-69
2024/02/28 11:26:03;;;;;;;24.92;14.90;;;;;;;;;;4988817;28;20187;-69
2024/02/28 11:28:28;;;;;;;20.55;13.38;;;;;;;;;;5009726;28;20187;-68
2024/02/28 11:30:53;;;;;;;18.98;14.48;;;;;;;;;;4990915;28;20206;-69
2024/02/28 11:33:19;;;;;;;19.33;12.88;;;;;;;;;;5009351;28;20186;-70
2024/02/28 11:35:44;;;;;;;19.25;13.43;;;;;;;;;;5008188;28;20232;-70
2024/02/28 11:38:12;;;;;;;20.15;13.57;;;;;;;;;;5010781;28;20167;-70
2024/02/28 11:40:37;;;;;;;19.08;12.13;;;;;;;;;;5007899;28;20195;-70
2024/02/28 11:43:03;;;;;;;19.50;13.40;;;;;;;;;;5006974;28;20190;-70
2024/02/28 11:45:29;;;;;;;19.38;12.80;;;;;;;;;;5009173;28;20171;-69
2024/02/28 11:47:55;;;;;;;17.92;12.80;;;;;;;;;;5006397;28;20179;-70
2024/02/28 11:50:20;;;;;;;22.48;13.02;;;;;;;;;;5005903;28;20203;-69
2024/02/28 11:52:45;;;;;;;21.23;11.95;;;;;;;;;;5007545;28;20206;-70
2024/02/28 11:55:11;;;;;;;21.73;11.60;;;;;;;;;;5008713;28;20265;-69
2024/02/28 11:57:36;;;;;;;17.25;11.52;;;;;;;;;;5011086;28;20210;-68
2024/02/28 12:00:06;;;;;;;15.73;11.05;;;;;;;;;;5008706;28;20206;-70
2024/02/28 12:02:31;;;;;;;15.30;11.15;;;;;;;;;;5000183;28;20253;-70
2024/02/28 12:05:00;;;;;;;19.15;10.82;;;;;;;;;;5005654;28;20187;-68
2024/02/28 12:07:25;;;;;;;21.17;12.02;;;;;;;;;;5003996;28;20658;-69
2024/02/28 12:09:50;;;;;;;14.98;11.10;;;;;;;;;;5006029;28;20210;-70
2024/02/28 12:12:16;;;;;;;20.23;11.93;;;;;;;;;;5014629;28;20182;-70
2024/02/28 12:14:42;;;;;;;17.33;11.27;;;;;;;;;;5010416;28;20193;-69
2024/02/28 12:17:08;;;;;;;20.15;12.32;;;;;;;;;;5009000;28;20282;-69
2024/02/28 12:19:34;;;;;;;20.25;11.50;;;;;;;;;;5011661;28;20286;-69
2024/02/28 12:22:00;;;;;;;16.88;11.27;;;;;;;;;;5007831;28;20258;-70
2024/02/28 12:24:25;;;;;;;16.63;10.68;;;;;;;;;;5008273;28;20629;-70
2024/02/28 12:26:50;;;;;;;19.90;10.85;;;;;;;;;;4989547;28;20178;-70
2024/02/28 12:29:15;;;;;;;16.38;10.35;;;;;;;;;;5008547;28;20175;-70
2024/02/28 12:31:41;;;;;;;16.42;10.20;;;;;;;;;;5002214;28;20670;-70
2024/02/28 12:34:06;;;;;;;17.52;10.50;;;;;;;;;;5007963;28;20186;-70
2024/02/28 12:36:32;;;;;;;18.17;11.52;;;;;;;;;;5009935;28;20260;-70
2024/02/28 12:38:59;;;;;;;18.35;11.35;;;;;;;;;;5007490;28;20182;-70
2024/02/28 12:41:24;;;;;;;19.92;11.68;;;;;;;;;;5008489;28;20248;-69
2024/02/28 12:43:50;;;;;;;15.10;10.65;;;;;;;;;;5009468;28;20190;-70
2024/02/28 12:46:15;;;;;;;19.83;10.88;;;;;;;;;;5010627;28;20175;-69
2024/02/28 12:48:40;;;;;;;18.08;10.60;;;;;;;;;;5005925;28;20194;-69
2024/02/28 12:51:08;;;;;;;19.17;10.52;;;;;;;;;;5009103;28;20195;-70
2024/02/28 12:53:33;;;;;;;16.50;11.38;;;;;;;;;;5009561;28;20186;-69
2024/02/28 12:55:59;;;;;;;23.48;11.95;;;;;;;;;;5006823;28;20199;-69
2024/02/28 12:58:24;;;;;;;20.45;11.80;;;;;;;;;;5003424;28;20190;-69
2024/02/28 13:00:49;;;;;;;17.73;10.93;;;;;;;;;;5003980;28;20274;-70
2024/02/28 13:03:16;;;;;;;17.40;10.43;;;;;;;;;;5008706;28;20262;-70
2024/02/28 13:05:41;;;;;;;19.52;11.45;;;;;;;;;;5009122;28;20229;-69
2024/02/28 13:08:06;;;;;;;18.20;11.15;;;;;;;;;;4991153;28;20179;-68
2024/02/28 13:10:34;;;;;;;22.08;11.05;;;;;;;;;;5007220;28;20217;-69
2024/02/28 13:12:59;;;;;;;20.83;10.52;;;;;;;;;;5009412;28;20263;-69
2024/02/28 13:15:24;;;;;;;17.33;9.88;;;;;;;;;;5010733;28;20262;-69
2024/02/28 13:17:50;;;;;;;18.92;12.32;;;;;;;;;;5014581;28;20198;-70
2024/02/28 13:20:16;;;;;;;22.15;12.82;;;;;;;;;;4994751;28;20209;-69
2024/02/28 13:22:41;;;;;;;25.02;13.77;;;;;;;;;;5007297;28;20179;-69
2024/02/28 13:25:07;;;;;;;21.40;12.60;;;;;;;;;;5010103;28;20194;-69
2024/02/28 13:27:32;;;;;;;20.88;13.88;;;;;;;;;;5007258;28;20190;-70
2024/02/28 13:29:57;;;;;;;24.15;16.25;;;;;;;;;;4994304;28;20679;-69
2024/02/28 13:32:22;;;;;;;28.10;15.10;;;;;;;;;;5006024;28;20186;-70
2024/02/28 13:34:48;;;;;;;23.13;13.25;;;;;;;;;;4992903;28;20187;-70
2024/02/28 13:37:13;;;;;;;22.33;15.43;;;;;;;;;;5011292;28;20297;-69
2024/02/28 13:39:38;;;;;;;26.60;14.95;;;;;;;;;;5007782;28;20194;-70
2024/02/28 13:42:06;;;;;;;23.95;14.23;;;;;;;;;;5006981;28;20183;-70
2024/02/28 13:44:31;;;;;;;20.38;12.75;;;;;;;;;;5008922;28;20183;-69
2024/02/28 13:46:56;;;;;;;19.50;12.50;;;;;;;;;;5006155;28;20196;-68
2024/02/28 13:49:21;;;;;;;19.13;12.13;;;;;;;;;;5012866;28;20190;-69
2024/02/28 13:51:49;;;;;;;19.33;12.25;;;;;;;;;;5012264;28;20191;-69
2024/02/28 13:54:15;;;;;;;23.77;14.73;;;;;;;;;;4994452;28;20178;-69
2024/02/28 13:56:40;;;;;;;18.58;12.55;;;;;;;;;;5011827;28;20211;-69
2024/02/28 13:59:06;;;;;;;20.10;13.77;;;;;;;;;;5012151;28;20241;-69
2024/02/28 14:01:31;;;;;;;18.42;13.65;;;;;;;;;;5011227;28;20678;-69
2024/02/28 14:03:56;;;;;;;21.13;13.10;;;;;;;;;;5011407;28;20186;-69
2024/02/28 14:06:22;;;;;;;17.45;11.80;;;;;;;;;;5007570;28;20197;-69
2024/02/28 14:08:47;;;;;;;20.35;10.95;;;;;;;;;;5008424;28;20193;-68